createdAt,value
2023-06-29T00:09:16.182Z,7.3
2023-06-29T00:24:58.937Z,7.7
2023-06-29T00:40:41.596Z,7.2
2023-06-29T00:56:23.698Z,7.3
2023-06-29T01:12:06.137Z,6.8
2023-06-29T01:27:48.425Z,6.9
2023-06-29T01:43:30.903Z,7.8
2023-06-29T02:14:55.304Z,7.8
2023-06-29T02:30:38.306Z,8
2023-06-29T02:46:20.565Z,7.6
2023-06-29T03:02:03.321Z,7.1
2023-06-29T03:17:45.504Z,7.2
2023-06-29T03:33:28.117Z,7.4
2023-06-29T03:49:10.176Z,8.39
2023-06-29T04:04:52.984Z,7.8
2023-06-29T04:20:35.450Z,7.5
2023-06-29T04:52:00.498Z,6.8
2023-06-29T05:07:43.503Z,6.8
2023-06-29T05:23:26.225Z,6.2
2023-06-29T05:39:08.268Z,6
2023-06-29T05:54:50.289Z,4.9
2023-06-29T06:10:32.485Z,4.4
2023-06-29T06:26:15.007Z,4
2023-06-29T06:41:57.885Z,3.7
2023-06-29T06:57:41.169Z,3.4
2023-06-29T07:29:05.296Z,3.1
2023-06-29T07:44:47.859Z,1.9
2023-06-29T08:00:30.591Z,1.8
2023-06-29T08:16:13.370Z,1.3
2023-06-29T08:31:55.424Z,1.1
2023-06-29T08:47:37.979Z,2.7
2023-06-29T09:03:20.496Z,1.6
2023-06-29T09:19:02.631Z,1.7
2023-06-29T09:34:44.844Z,1.3
2023-06-29T09:50:27.628Z,1.7
2023-06-29T10:06:09.664Z,2.09
2023-06-29T10:21:52.206Z,1.3
2023-06-29T10:37:34.316Z,1
2023-06-29T10:53:16.775Z,1.5
2023-06-29T11:09:02.274Z,1.6
2023-06-29T11:24:41.503Z,1.4
2023-06-29T11:40:24.262Z,1.3
2023-06-29T11:56:07.013Z,1.7
2023-06-29T12:11:49.121Z,1.7
2023-06-29T12:27:31.189Z,1.8
2023-06-29T12:43:13.889Z,1.8
2023-06-29T12:58:55.965Z,2.3
2023-06-29T13:14:37.933Z,2.2
2023-06-29T13:30:20.206Z,2.2
2023-06-29T13:46:02.999Z,1.9
2023-06-29T14:01:45.488Z,1.8
2023-06-29T14:17:28.308Z,2.09
2023-06-29T14:33:11.112Z,1.6
2023-06-29T14:48:53.724Z,1.7
2023-06-29T15:04:36.303Z,1.7
2023-06-29T15:36:01.467Z,1.6
2023-06-29T15:51:43.720Z,3.2
2023-06-29T16:07:26.227Z,1.6
2023-06-29T16:23:08.956Z,1.7
2023-06-29T16:38:51.075Z,1.9
2023-06-29T16:54:33.563Z,2.09
2023-06-29T17:10:15.613Z,2
2023-06-29T17:25:57.770Z,2.9
2023-06-29T17:41:40.146Z,2.6
2023-06-29T17:57:22.619Z,2.3
2023-06-29T18:13:04.432Z,2.7
2023-06-29T18:28:46.873Z,2.7
2023-06-29T18:44:29.629Z,3
2023-06-29T19:00:12.212Z,3.4
2023-06-29T19:15:54.914Z,6
2023-06-29T19:31:37.786Z,4.1
2023-06-29T19:47:19.554Z,5
2023-06-29T20:03:02.333Z,5.2
2023-06-29T20:18:44.868Z,4.6
2023-06-29T20:34:27.508Z,5.2
2023-06-29T20:35:14.677Z,5.2
2023-06-29T20:50:57.189Z,5.5
2023-06-29T21:06:40.210Z,5.8
2023-06-29T21:22:22.613Z,6.8
2023-06-29T21:38:05.153Z,9.2
2023-06-29T21:53:48.141Z,6.8
2023-06-29T22:09:31.057Z,7.1
2023-06-29T22:25:13.684Z,6.6
2023-06-29T22:40:55.987Z,7.6
2023-06-29T22:56:38.733Z,7.3
2023-06-29T23:12:21.438Z,7.1
2023-06-29T23:28:03.411Z,7.5
2023-06-29T23:43:45.721Z,7.9
2023-06-29T23:59:28.364Z,7.2
